createdAt,value
2018-10-05T00:01:52.170Z,13.60
2018-10-05T00:04:20.303Z,12.87
2018-10-05T00:06:48.531Z,14.60
2018-10-05T00:09:16.662Z,13.23
2018-10-05T00:11:44.830Z,16.10
2018-10-05T00:14:12.834Z,14.50
2018-10-05T00:16:40.970Z,13.93
2018-10-05T00:19:09.430Z,11.80
2018-10-05T00:21:37.927Z,13.80
2018-10-05T00:24:06.173Z,12.30
2018-10-05T00:26:34.377Z,12.30
2018-10-05T00:29:02.503Z,13.07
2018-10-05T00:31:30.809Z,11.60
2018-10-05T00:33:58.877Z,12.30
2018-10-05T00:36:26.993Z,13.77
2018-10-05T00:38:56.430Z,12.20
2018-10-05T00:41:24.520Z,15.63
2018-10-05T00:43:52.657Z,14.60
2018-10-05T00:46:27.969Z,13.80
2018-10-05T00:48:56.055Z,16.03
2018-10-05T00:51:24.184Z,13.70
2018-10-05T00:53:52.180Z,14.30
2018-10-05T00:56:20.157Z,14.57
2018-10-05T00:58:48.213Z,13.73
2018-10-05T01:01:16.201Z,14.93
2018-10-05T01:03:44.223Z,17.53
2018-10-05T01:06:12.271Z,15.17
2018-10-05T01:08:40.525Z,17.77
2018-10-05T01:11:08.656Z,19.00
2018-10-05T01:13:36.709Z,17.63
2018-10-05T01:16:04.945Z,17.20
2018-10-05T01:18:33.395Z,17.87
2018-10-05T01:21:01.672Z,17.50
2018-10-05T01:23:29.867Z,16.67
2018-10-05T01:25:57.962Z,19.03
2018-10-05T01:28:26.045Z,19.63
2018-10-05T01:30:54.152Z,16.97
2018-10-05T01:33:22.762Z,17.23
2018-10-05T01:35:50.779Z,16.43
2018-10-05T01:38:18.758Z,17.03
2018-10-05T01:40:46.794Z,16.33
2018-10-05T01:43:14.781Z,16.70
2018-10-05T01:45:42.875Z,18.30
2018-10-05T01:48:10.946Z,17.20
2018-10-05T01:50:39.028Z,19.30
2018-10-05T01:53:07.057Z,16.77
2018-10-05T01:55:35.253Z,15.73
2018-10-05T01:58:03.662Z,16.80
2018-10-05T02:00:32.244Z,15.97
2018-10-05T02:03:00.381Z,15.37
2018-10-05T02:05:28.467Z,18.33
2018-10-05T02:07:56.564Z,16.33
2018-10-05T02:10:24.608Z,16.97
2018-10-05T02:12:52.621Z,17.80
2018-10-05T02:15:20.687Z,16.00
2018-10-05T02:17:48.650Z,17.10
2018-10-05T02:20:16.624Z,17.10
2018-10-05T02:22:44.770Z,20.60
2018-10-05T02:25:13.360Z,19.23
2018-10-05T02:27:41.540Z,19.20
2018-10-05T02:30:09.582Z,18.43
2018-10-05T02:32:37.693Z,18.27
2018-10-05T02:35:06.082Z,19.87
2018-10-05T02:37:34.095Z,18.00
2018-10-05T02:40:02.418Z,18.53
2018-10-05T02:42:30.721Z,18.00
2018-10-05T02:44:58.818Z,18.97
2018-10-05T02:47:26.945Z,17.03
2018-10-05T02:49:55.460Z,17.30
2018-10-05T02:52:23.457Z,19.83
2018-10-05T02:54:51.567Z,17.43
2018-10-05T02:57:19.596Z,18.13
2018-10-05T02:59:47.813Z,17.03
2018-10-05T03:02:21.188Z,17.23
2018-10-05T03:04:49.554Z,15.70
2018-10-05T03:07:17.925Z,19.83
2018-10-05T03:09:46.202Z,19.23
2018-10-05T03:12:14.545Z,17.30
2018-10-05T03:14:42.545Z,17.57
2018-10-05T03:17:10.679Z,16.20
2018-10-05T03:19:39.049Z,16.03
2018-10-05T03:22:07.405Z,18.00
2018-10-05T03:24:35.566Z,16.37
2018-10-05T03:27:03.827Z,15.80
2018-10-05T03:29:31.928Z,15.90
2018-10-05T03:32:00.111Z,15.50
2018-10-05T03:34:28.244Z,17.37
2018-10-05T03:36:56.405Z,15.83
2018-10-05T03:39:24.456Z,17.30
2018-10-05T03:41:52.997Z,18.57
2018-10-05T03:44:21.338Z,15.90
2018-10-05T03:46:49.373Z,17.57
2018-10-05T03:49:17.455Z,17.90
2018-10-05T03:51:45.431Z,18.47
2018-10-05T03:54:13.481Z,17.70
2018-10-05T03:56:41.510Z,19.47
2018-10-05T03:59:10.136Z,19.00
2018-10-05T04:01:38.330Z,21.00
2018-10-05T04:04:06.447Z,20.00
2018-10-05T04:06:34.543Z,21.10
2018-10-05T04:09:02.723Z,21.83
2018-10-05T04:11:33.290Z,21.40
2018-10-05T04:14:01.420Z,22.10
2018-10-05T04:16:29.557Z,24.43
2018-10-05T04:18:57.751Z,21.83
2018-10-05T04:21:26.277Z,22.50
2018-10-05T04:23:54.332Z,21.60
2018-10-05T04:26:22.313Z,22.73
2018-10-05T04:28:50.299Z,22.53
2018-10-05T04:31:18.716Z,22.63
2018-10-05T04:33:47.199Z,20.80
2018-10-05T04:36:16.828Z,21.37
2018-10-05T04:38:44.912Z,20.20
2018-10-05T04:41:13.772Z,20.67
2018-10-05T04:43:42.120Z,20.07
2018-10-05T04:46:10.313Z,19.83
2018-10-05T04:48:38.348Z,17.97
2018-10-05T04:51:09.399Z,19.77
2018-10-05T04:53:38.496Z,17.90
2018-10-05T04:56:07.234Z,17.60
2018-10-05T04:58:35.511Z,16.30
2018-10-05T05:01:03.980Z,14.67
2018-10-05T05:03:32.275Z,15.60
2018-10-05T05:06:00.732Z,15.30
2018-10-05T05:08:28.918Z,15.00
2018-10-05T05:10:57.075Z,13.90
2018-10-05T05:13:25.265Z,14.90
2018-10-05T05:15:53.540Z,15.17
2018-10-05T05:18:21.979Z,14.53
2018-10-05T05:20:50.289Z,12.57
2018-10-05T05:23:18.365Z,14.50
2018-10-05T05:25:47.772Z,14.23
2018-10-05T05:28:16.993Z,13.30
2018-10-05T05:33:43.464Z,12.20
2018-10-05T05:36:12.099Z,11.70
2018-10-05T05:38:41.481Z,12.50
2018-10-05T05:41:10.981Z,11.90
2018-10-05T05:43:39.480Z,12.83
2018-10-05T05:46:08.635Z,12.57
2018-10-05T05:48:37.054Z,11.00
2018-10-05T05:51:05.224Z,11.50
2018-10-05T05:53:34.197Z,10.50
2018-10-05T05:56:02.758Z,11.23
2018-10-05T05:58:35.951Z,10.60
2018-10-05T06:01:07.261Z,10.20
2018-10-05T06:03:36.284Z,10.80
2018-10-05T06:06:14.154Z,10.23
2018-10-05T06:08:42.651Z,10.00
2018-10-05T06:11:13.168Z,8.40
2018-10-05T06:13:41.248Z,8.97
2018-10-05T06:16:09.575Z,9.73
2018-10-05T06:18:37.921Z,8.10
2018-10-05T06:21:06.247Z,8.30
2018-10-05T06:23:35.226Z,8.63
2018-10-05T06:26:04.040Z,8.67
2018-10-05T06:28:32.889Z,7.20
2018-10-05T06:31:01.323Z,7.73
2018-10-05T06:33:34.176Z,7.57
2018-10-05T06:36:02.702Z,7.10
2018-10-05T06:38:31.380Z,6.77
2018-10-05T06:40:59.831Z,7.53
2018-10-05T06:46:09.971Z,7.80
2018-10-05T06:48:38.188Z,13.30
2018-10-05T06:51:08.693Z,18.87
2018-10-05T06:53:37.124Z,19.00
2018-10-05T07:09:38.145Z,18.00
2018-10-05T07:12:11.919Z,16.10
2018-10-05T07:14:40.174Z,14.60
2018-10-05T07:17:09.653Z,15.93
2018-10-05T07:19:38.794Z,18.90
2018-10-05T07:22:07.310Z,17.17
2018-10-05T07:24:35.987Z,17.20
2018-10-05T07:27:18.040Z,17.07
2018-10-05T07:29:46.624Z,18.57
2018-10-05T07:32:15.044Z,16.13
2018-10-05T07:37:25.906Z,15.60
2018-10-05T07:39:55.179Z,14.17
2018-10-05T07:42:23.731Z,14.97
2018-10-05T07:44:52.129Z,12.67
2018-10-05T07:47:20.789Z,12.00
2018-10-05T07:49:49.235Z,11.93
2018-10-05T07:52:17.842Z,11.03
2018-10-05T07:55:00.511Z,10.67
2018-10-05T08:00:20.878Z,10.00
2018-10-05T08:02:49.083Z,10.93
2018-10-05T08:05:17.294Z,10.87
2018-10-05T08:07:45.486Z,9.20
2018-10-05T08:10:13.706Z,9.60
2018-10-05T08:15:23.421Z,10.43
2018-10-05T08:17:52.273Z,6.87
2018-10-05T08:20:20.542Z,7.77
2018-10-05T08:22:49.492Z,6.63
2018-10-05T08:25:17.660Z,7.73
2018-10-05T08:27:46.309Z,8.27
2018-10-05T08:30:14.820Z,6.70
2018-10-05T08:32:43.327Z,8.20
2018-10-05T08:35:11.507Z,7.07
2018-10-05T08:37:41.428Z,7.27
2018-10-05T08:40:14.352Z,6.03
2018-10-05T08:42:42.684Z,5.50
2018-10-05T08:47:58.433Z,6.37
2018-10-05T08:50:31.729Z,5.57
2018-10-05T08:53:03.933Z,5.20
2018-10-05T08:55:32.382Z,6.30
2018-10-05T08:58:06.851Z,6.47
2018-10-05T09:03:27.943Z,5.03
2018-10-05T09:05:56.636Z,4.90
2018-10-05T09:08:25.135Z,5.70
2018-10-05T09:13:32.833Z,5.93
2018-10-05T09:16:03.538Z,6.07
2018-10-05T09:18:44.359Z,5.70
2018-10-05T09:21:12.784Z,5.30
2018-10-05T09:23:41.219Z,5.80
2018-10-05T09:26:10.044Z,6.30
2018-10-05T09:31:24.219Z,6.67
2018-10-05T09:33:54.115Z,5.07
2018-10-05T09:39:22.934Z,5.93
2018-10-05T09:45:09.597Z,5.60
2018-10-05T09:47:38.043Z,5.00
2018-10-05T09:53:01.757Z,4.73
2018-10-05T09:55:32.245Z,4.37
2018-10-05T09:58:01.314Z,4.70
2018-10-05T10:00:35.690Z,4.97
2018-10-05T10:03:11.657Z,5.50
2018-10-05T10:05:40.694Z,4.43
2018-10-05T10:08:09.877Z,6.77
2018-10-05T10:10:38.818Z,5.83
2018-10-05T10:13:11.953Z,5.00
2018-10-05T10:15:40.512Z,6.20
2018-10-05T10:18:09.641Z,5.90
2018-10-05T10:20:38.318Z,7.07
2018-10-05T10:23:07.565Z,6.00
2018-10-05T10:25:36.397Z,6.47
2018-10-05T10:28:05.015Z,6.40
2018-10-05T10:30:34.054Z,6.50
2018-10-05T10:33:04.140Z,6.80
2018-10-05T10:35:32.662Z,6.50
2018-10-05T10:38:01.181Z,6.37
2018-10-05T10:40:30.308Z,7.40
2018-10-05T10:42:58.599Z,6.77
2018-10-05T10:45:29.235Z,5.57
2018-10-05T10:50:31.283Z,6.33
2018-10-05T10:53:00.787Z,6.40
2018-10-05T10:55:33.999Z,6.20
2018-10-05T11:03:32.516Z,7.10
2018-10-05T11:08:35.140Z,6.90
2018-10-05T11:11:07.071Z,6.40
2018-10-05T11:13:35.357Z,5.90
2018-10-05T11:16:03.743Z,6.80
2018-10-05T11:18:33.105Z,5.83
2018-10-05T11:23:40.883Z,5.50
2018-10-05T11:28:55.221Z,6.10
2018-10-05T11:31:31.629Z,5.67
2018-10-05T11:36:48.919Z,5.40
2018-10-05T11:41:55.577Z,5.53
2018-10-05T11:44:24.377Z,4.77
2018-10-05T11:49:41.115Z,7.23
2018-10-05T11:52:09.657Z,6.37
2018-10-05T12:02:56.244Z,5.10
2018-10-05T12:05:24.568Z,5.20
2018-10-05T12:07:53.065Z,4.80
2018-10-05T12:10:21.397Z,4.80
2018-10-05T12:12:58.372Z,5.40
2018-10-05T12:18:11.958Z,5.30
2018-10-05T12:20:44.376Z,4.20
2018-10-05T12:28:58.574Z,4.60
2018-10-05T12:34:35.801Z,4.73
2018-10-05T12:39:42.720Z,4.47
2018-10-05T12:42:13.007Z,3.93
2018-10-05T12:44:41.534Z,4.60
2018-10-05T12:49:58.005Z,4.63
2018-10-05T12:52:26.354Z,5.20
2018-10-05T12:57:42.995Z,4.97
2018-10-05T13:00:11.202Z,4.90
2018-10-05T13:02:39.716Z,4.10
2018-10-05T13:05:09.136Z,5.53
2018-10-05T13:07:38.757Z,5.17
2018-10-05T13:10:08.315Z,4.40
2018-10-05T13:12:37.270Z,3.83
2018-10-05T13:18:02.168Z,3.70
2018-10-05T13:20:34.936Z,4.50
2018-10-05T13:25:45.622Z,4.27
2018-10-05T13:28:14.215Z,2.90
2018-10-05T13:33:26.997Z,4.03
2018-10-05T13:35:55.301Z,3.20
2018-10-05T13:38:24.675Z,3.83
2018-10-05T13:43:28.101Z,3.57
2018-10-05T13:45:57.979Z,3.33
2018-10-05T13:48:26.889Z,3.87
2018-10-05T13:54:10.603Z,3.83
2018-10-05T13:56:39.524Z,2.90
2018-10-05T13:59:07.828Z,3.23
2018-10-05T14:01:37.635Z,3.30
2018-10-05T14:06:48.986Z,3.57
2018-10-05T14:09:17.726Z,2.87
2018-10-05T14:14:49.944Z,3.30
2018-10-05T14:17:19.525Z,3.30
2018-10-05T14:22:32.950Z,3.53
2018-10-05T14:27:41.556Z,3.27
2018-10-05T14:30:16.083Z,3.70
2018-10-05T14:32:45.596Z,3.90
2018-10-05T14:35:17.579Z,4.20
2018-10-05T14:37:45.986Z,3.87
2018-10-05T14:40:14.791Z,3.27
2018-10-05T14:42:42.926Z,4.97
2018-10-05T14:48:02.851Z,3.60
2018-10-05T14:50:32.711Z,4.53
2018-10-05T14:53:02.525Z,8.40
2018-10-05T14:55:35.661Z,4.93
2018-10-05T14:58:04.292Z,3.90
2018-10-05T15:00:33.336Z,4.50
2018-10-05T15:03:07.116Z,4.40
2018-10-05T15:05:35.811Z,4.87
2018-10-05T15:08:04.638Z,4.10
2018-10-05T15:13:31.061Z,4.17
2018-10-05T15:15:59.701Z,4.30
2018-10-05T15:18:28.131Z,4.47
2018-10-05T15:21:03.277Z,5.03
2018-10-05T15:23:31.683Z,4.80
2018-10-05T15:26:00.558Z,4.40
2018-10-05T15:28:29.717Z,3.90
2018-10-05T15:30:59.232Z,3.50
2018-10-05T15:33:33.561Z,3.27
2018-10-05T15:36:06.035Z,3.77
2018-10-05T15:38:34.673Z,5.70
2018-10-05T15:43:55.872Z,5.73
2018-10-05T15:46:33.796Z,6.87
2018-10-05T15:49:06.210Z,4.37
2018-10-05T15:51:36.927Z,4.63
2018-10-05T15:54:05.884Z,5.30
2018-10-05T15:56:43.902Z,5.63
2018-10-05T16:02:06.329Z,5.60
2018-10-05T16:07:32.617Z,5.47
2018-10-05T16:10:05.154Z,5.90
2018-10-05T16:15:23.046Z,6.13
2018-10-05T16:17:51.262Z,8.37
2018-10-05T16:20:32.322Z,5.90
2018-10-05T16:23:02.794Z,5.17
2018-10-05T16:25:31.994Z,6.10
2018-10-05T16:30:58.359Z,4.47
2018-10-05T16:33:27.797Z,4.23
2018-10-05T16:35:56.292Z,4.53
2018-10-05T16:38:25.259Z,4.67
2018-10-05T16:40:53.573Z,4.43
2018-10-05T16:43:31.691Z,4.63
2018-10-05T16:46:00.710Z,4.77
2018-10-05T16:48:29.517Z,4.30
2018-10-05T16:50:59.774Z,5.50
2018-10-05T16:53:32.769Z,6.10
2018-10-05T16:56:10.143Z,5.97
2018-10-05T16:58:38.886Z,4.53
2018-10-05T17:01:07.637Z,5.23
2018-10-05T17:03:37.134Z,4.90
2018-10-05T17:06:06.627Z,5.00
2018-10-05T17:08:38.878Z,5.60
2018-10-05T17:11:07.110Z,4.90
2018-10-05T17:13:36.265Z,5.93
2018-10-05T17:16:05.235Z,6.50
2018-10-05T17:21:15.028Z,6.60
2018-10-05T17:23:43.415Z,7.73
2018-10-05T17:26:12.301Z,6.57
2018-10-05T17:28:40.732Z,7.23
2018-10-05T17:31:15.084Z,7.40
2018-10-05T17:36:28.474Z,7.77
2018-10-05T17:38:57.057Z,7.80
2018-10-05T17:41:31.803Z,6.87
2018-10-05T17:44:02.559Z,8.30
2018-10-05T17:46:33.933Z,7.30
2018-10-05T17:49:03.125Z,8.43
2018-10-05T17:57:21.603Z,7.10
2018-10-05T17:59:50.448Z,6.73
2018-10-05T18:05:01.433Z,7.70
2018-10-05T18:07:29.879Z,8.30
2018-10-05T18:10:01.011Z,6.43
2018-10-05T18:12:29.211Z,6.43
2018-10-05T18:14:58.411Z,7.57
2018-10-05T18:20:29.031Z,7.30
2018-10-05T18:23:03.689Z,8.73
2018-10-05T18:25:33.230Z,6.90
2018-10-05T18:28:02.813Z,6.83
2018-10-05T18:30:31.357Z,7.33
2018-10-05T18:33:00.027Z,7.57
2018-10-05T18:40:58.831Z,9.27
2018-10-05T18:43:27.242Z,8.10
2018-10-05T18:45:55.717Z,9.50
2018-10-05T18:48:24.286Z,8.87
2018-10-05T18:51:02.036Z,8.67
2018-10-05T18:53:35.331Z,11.73
2018-10-05T18:58:10.492Z,10.07
2018-10-05T19:00:39.001Z,9.73
2018-10-05T19:03:07.613Z,9.57
2018-10-05T19:05:39.393Z,9.40
2018-10-05T19:10:41.240Z,10.20
2018-10-05T19:13:21.748Z,9.80
2018-10-05T19:15:49.939Z,11.60
2018-10-05T19:18:18.186Z,10.47
2018-10-05T19:20:46.672Z,11.60
2018-10-05T19:23:15.829Z,10.03
2018-10-05T19:25:45.748Z,8.80
2018-10-05T19:28:14.104Z,9.00
2018-10-05T19:30:42.921Z,9.77
2018-10-05T19:33:16.322Z,8.43
2018-10-05T19:35:44.510Z,10.20
2018-10-05T19:38:12.878Z,10.83
2018-10-05T19:40:47.000Z,9.87
2018-10-05T19:43:15.388Z,10.03
2018-10-05T19:45:44.328Z,10.20
2018-10-05T19:48:12.526Z,10.40
2018-10-05T19:50:42.552Z,10.63
2018-10-05T19:53:11.716Z,11.83
2018-10-05T19:55:41.299Z,12.17
2018-10-05T19:58:10.098Z,11.53
2018-10-05T20:00:39.110Z,11.60
2018-10-05T20:05:49.989Z,11.77
2018-10-05T20:11:03.688Z,11.43
2018-10-05T20:13:34.295Z,10.30
2018-10-05T20:16:03.435Z,9.40
2018-10-05T20:18:36.337Z,11.27
2018-10-05T20:23:41.989Z,11.50
2018-10-05T20:28:44.473Z,11.30
2018-10-05T20:31:12.922Z,11.67
2018-10-05T20:33:42.166Z,10.83
2018-10-05T20:36:11.547Z,11.50
2018-10-05T20:38:42.022Z,14.27
2018-10-05T20:41:11.989Z,14.33
2018-10-05T20:43:40.976Z,15.30
2018-10-05T20:46:09.674Z,13.50
2018-10-05T20:48:38.814Z,14.10
2018-10-05T20:53:48.292Z,11.93
2018-10-05T20:56:16.631Z,12.00
2018-10-05T20:58:45.177Z,11.77
2018-10-05T21:01:13.326Z,15.63
2018-10-05T21:03:41.728Z,14.83
2018-10-05T21:06:10.090Z,14.73
2018-10-05T21:08:38.295Z,15.60
2018-10-05T21:11:06.641Z,17.30
2018-10-05T21:13:35.135Z,16.37
2018-10-05T21:16:03.846Z,14.33
2018-10-05T21:18:38.919Z,16.57
2018-10-05T21:21:07.165Z,15.93
2018-10-05T21:23:37.182Z,14.63
2018-10-05T21:26:05.788Z,16.57
2018-10-05T21:28:34.941Z,17.00
2018-10-05T21:31:03.564Z,13.60
2018-10-05T21:33:34.812Z,14.20
2018-10-05T21:36:04.205Z,13.50
2018-10-05T21:38:32.965Z,12.37
2018-10-05T21:41:01.249Z,12.10
2018-10-05T21:43:29.626Z,11.70
2018-10-05T21:45:58.699Z,13.50
2018-10-05T21:48:27.294Z,12.13
2018-10-05T21:53:30.956Z,11.90
2018-10-05T21:55:59.243Z,12.07
2018-10-05T21:58:27.562Z,10.67
2018-10-05T22:00:56.093Z,10.53
2018-10-05T22:03:24.248Z,10.97
2018-10-05T22:05:52.603Z,10.70
2018-10-05T22:08:20.599Z,11.20
2018-10-05T22:10:53.315Z,11.40
2018-10-05T22:13:21.557Z,10.90
2018-10-05T22:15:49.632Z,9.63
2018-10-05T22:18:23.826Z,11.80
2018-10-05T22:20:52.323Z,10.97
2018-10-05T22:23:20.515Z,11.40
2018-10-05T22:25:48.969Z,9.30
2018-10-05T22:28:17.227Z,10.20
2018-10-05T22:30:45.478Z,9.33
2018-10-05T22:33:13.724Z,10.90
2018-10-05T22:35:41.979Z,9.27
2018-10-05T22:38:10.176Z,10.23
2018-10-05T22:40:38.558Z,9.30
2018-10-05T22:43:06.695Z,11.70
2018-10-05T22:45:34.941Z,9.60
2018-10-05T22:48:03.841Z,10.77
2018-10-05T22:50:33.182Z,10.73
2018-10-05T22:53:02.150Z,11.13
2018-10-05T22:55:30.878Z,12.07
2018-10-05T22:57:59.056Z,11.77
2018-10-05T23:00:27.312Z,10.80
2018-10-05T23:02:55.877Z,12.70
2018-10-05T23:05:23.976Z,13.87
2018-10-05T23:07:52.126Z,9.53
2018-10-05T23:10:20.081Z,9.30
2018-10-05T23:12:58.304Z,9.20
2018-10-05T23:15:27.120Z,9.77
2018-10-05T23:17:55.121Z,9.60
2018-10-05T23:20:23.582Z,10.37
2018-10-05T23:22:51.684Z,9.27
2018-10-05T23:25:19.785Z,8.40
2018-10-05T23:27:47.987Z,7.80
2018-10-05T23:30:15.978Z,7.70
2018-10-05T23:32:45.219Z,8.37
2018-10-05T23:35:13.298Z,8.13
2018-10-05T23:37:41.550Z,7.30
2018-10-05T23:40:09.803Z,8.13
2018-10-05T23:42:38.229Z,7.27
2018-10-05T23:45:06.488Z,7.40
2018-10-05T23:47:34.930Z,8.50
2018-10-05T23:50:03.808Z,8.27
2018-10-05T23:52:35.062Z,7.33
2018-10-05T23:55:04.484Z,7.70
2018-10-05T23:57:33.520Z,6.57
